KDCU/DCU METAR and TAF weather

Enter ICAO airport designator
Station Type Date Time Source
KDCU METAR 2019/02/23 22:53 UTC NOAA

KDCU 232253Z AUTO 15015KT 9SM FEW025 FEW041 OVC095 19/18 A2981 RMK AO2 RAE2155 SLP092 P0000 T01890178


Station Type Date Time Source
KDCU Decoded METAR 2019/02/23 22:53 UTC NOAA

PRYOR FIELD, AL, United States (KDCU) 34-39N 086-57W 176M
Feb 23, 2019 - 05:53 PM EST / 2019.02.23 2253 UTC
Wind: from the SSE (150 degrees) at 17 MPH (15 KT):0
Visibility: 9 mile(s):0
Sky conditions: overcast
Precipitation last hour: A trace
Temperature: 66.0 F (18.9 C)
Dew Point: 64.0 F (17.8 C)
Relative Humidity: 93%
Pressure (altimeter): 29.81 in. Hg (1009 hPa)
ob: KDCU 232253Z AUTO 15015KT 9SM FEW025 FEW041 OVC095 19/18 A2981 RMK AO2 RAE2155 SLP092 P0000 T01890178
cycle: 23

Station Type Date Time Source
KDCU TAF UTC NOAA

Error!


Example: see airport list